createdAt,value
2018-08-06T00:02:18.562Z,46.20
2018-08-06T00:04:46.896Z,46.40
2018-08-06T00:07:15.228Z,46.30
2018-08-06T00:09:43.633Z,46.30
2018-08-06T00:12:12.002Z,46.40
2018-08-06T00:14:40.364Z,46.40
2018-08-06T00:17:09.073Z,46.40
2018-08-06T00:19:37.656Z,46.30
2018-08-06T00:22:06.560Z,46.40
2018-08-06T00:24:34.904Z,46.40
2018-08-06T00:27:03.319Z,46.40
2018-08-06T00:29:31.889Z,46.40
2018-08-06T00:32:00.508Z,46.40
2018-08-06T00:34:28.876Z,46.40
2018-08-06T00:36:57.439Z,46.50
2018-08-06T00:39:25.780Z,46.40
2018-08-06T00:41:54.164Z,46.50
2018-08-06T00:44:22.584Z,46.50
2018-08-06T00:46:50.920Z,46.50
2018-08-06T00:49:19.232Z,46.50
2018-08-06T00:51:47.641Z,46.50
2018-08-06T00:54:15.972Z,46.50
2018-08-06T00:56:44.329Z,46.60
2018-08-06T00:59:12.681Z,46.70
2018-08-06T01:01:41.163Z,46.60
2018-08-06T01:04:09.477Z,46.60
2018-08-06T01:06:37.842Z,46.60
2018-08-06T01:09:08.395Z,46.60
2018-08-06T01:11:37.030Z,46.60
2018-08-06T01:14:05.512Z,46.60
2018-08-06T01:16:33.863Z,46.70
2018-08-06T01:19:02.180Z,46.60
2018-08-06T01:21:30.516Z,46.60
2018-08-06T01:23:59.111Z,46.70
2018-08-06T01:26:27.411Z,46.60
2018-08-06T01:28:56.223Z,46.70
2018-08-06T01:31:24.578Z,46.70
2018-08-06T01:33:54.017Z,46.90
2018-08-06T01:36:22.392Z,46.70
2018-08-06T01:38:50.738Z,46.70
2018-08-06T01:41:19.087Z,46.70
2018-08-06T01:43:47.467Z,46.60
2018-08-06T01:46:15.849Z,46.70
2018-08-06T01:48:44.232Z,46.70
2018-08-06T01:51:12.566Z,46.70
2018-08-06T01:53:40.936Z,46.70
2018-08-06T01:56:09.420Z,46.70
2018-08-06T01:58:37.793Z,46.70
2018-08-06T02:01:06.248Z,46.70
2018-08-06T02:03:34.586Z,47.10
2018-08-06T02:06:02.917Z,46.80
2018-08-06T02:08:31.285Z,46.90
2018-08-06T02:10:59.628Z,46.90
2018-08-06T02:15:56.094Z,46.90
2018-08-06T02:18:24.451Z,47.00
2018-08-06T02:20:52.896Z,47.00
2018-08-06T02:23:21.637Z,47.20
2018-08-06T02:25:50.097Z,47.20
2018-08-06T02:28:18.538Z,47.00
2018-08-06T02:30:46.956Z,47.00
2018-08-06T02:33:15.318Z,47.10
2018-08-06T02:35:43.679Z,47.10
2018-08-06T02:38:12.084Z,47.10
2018-08-06T02:40:40.454Z,47.10
2018-08-06T02:43:08.839Z,47.10
2018-08-06T02:45:37.195Z,47.10
2018-08-06T02:48:05.868Z,47.10
2018-08-06T02:50:34.188Z,47.10
2018-08-06T02:53:02.640Z,47.00
2018-08-06T02:55:30.984Z,47.10
2018-08-06T02:57:59.328Z,47.00
2018-08-06T03:00:27.700Z,47.00
2018-08-06T03:02:56.061Z,47.00
2018-08-06T03:05:24.442Z,47.00
2018-08-06T03:07:52.755Z,46.90
2018-08-06T03:10:21.076Z,46.90
2018-08-06T03:12:49.412Z,46.90
2018-08-06T03:15:17.808Z,47.00
2018-08-06T03:17:46.236Z,46.90
2018-08-06T03:20:14.823Z,46.90
2018-08-06T03:22:43.448Z,47.50
2018-08-06T03:25:13.625Z,47.00
2018-08-06T03:27:42.828Z,46.90
2018-08-06T03:30:13.278Z,47.00
2018-08-06T03:32:42.111Z,46.90
2018-08-06T03:35:11.716Z,46.90
2018-08-06T03:37:40.126Z,47.10
2018-08-06T03:40:09.614Z,47.20
2018-08-06T03:42:38.048Z,47.10
2018-08-06T03:45:07.890Z,47.00
2018-08-06T03:47:36.431Z,47.10
2018-08-06T03:50:05.860Z,46.90
2018-08-06T03:52:34.370Z,46.90
2018-08-06T03:55:02.699Z,46.90
2018-08-06T03:57:31.030Z,46.80
2018-08-06T03:59:59.488Z,46.80
2018-08-06T04:04:55.940Z,46.80
2018-08-06T04:07:24.338Z,46.80
2018-08-06T04:09:53.002Z,46.80
2018-08-06T04:12:21.324Z,46.80
2018-08-06T04:14:49.663Z,46.80
2018-08-06T04:17:18.025Z,46.80
2018-08-06T04:19:46.424Z,46.80
2018-08-06T04:22:14.815Z,46.80
2018-08-06T04:24:43.158Z,46.90
2018-08-06T04:27:11.512Z,46.80
2018-08-06T04:29:39.925Z,46.80
2018-08-06T04:32:08.303Z,46.80
2018-08-06T04:34:36.652Z,46.80
2018-08-06T04:37:05.031Z,46.80
2018-08-06T04:39:33.374Z,46.80
2018-08-06T04:42:01.758Z,46.80
2018-08-06T04:44:30.362Z,46.80
2018-08-06T04:46:58.752Z,47.40
2018-08-06T04:49:27.085Z,46.70
2018-08-06T04:51:55.518Z,46.80
2018-08-06T04:54:23.855Z,46.70
2018-08-06T04:56:52.233Z,46.70
2018-08-06T04:59:20.580Z,46.70
2018-08-06T05:01:48.914Z,46.70
2018-08-06T05:04:17.280Z,46.80
2018-08-06T05:06:45.650Z,46.80
2018-08-06T05:09:19.593Z,46.20
2018-08-06T05:11:48.276Z,46.70
2018-08-06T05:14:16.621Z,46.90
2018-08-06T05:16:45.209Z,46.90
2018-08-06T05:19:13.627Z,47.10
2018-08-06T05:21:41.964Z,47.30
2018-08-06T05:24:10.388Z,47.50
2018-08-06T05:26:38.763Z,47.40
2018-08-06T05:29:07.174Z,47.30
2018-08-06T05:31:37.625Z,47.40
2018-08-06T05:34:06.484Z,47.20
2018-08-06T05:36:34.803Z,47.30
2018-08-06T05:39:03.385Z,47.20
2018-08-06T05:41:31.832Z,47.10
2018-08-06T05:44:00.149Z,47.20
2018-08-06T05:46:28.532Z,47.80
2018-08-06T05:48:56.914Z,47.20
2018-08-06T05:51:25.281Z,47.00
2018-08-06T05:53:53.609Z,46.50
2018-08-06T05:56:21.955Z,46.40
2018-08-06T05:58:50.664Z,46.60
2018-08-06T06:01:19.054Z,46.40
2018-08-06T06:03:47.410Z,46.40
2018-08-06T06:06:15.739Z,46.30
2018-08-06T06:08:44.079Z,46.20
2018-08-06T06:11:12.459Z,46.20
2018-08-06T06:13:40.816Z,46.20
2018-08-06T06:16:09.444Z,46.00
2018-08-06T06:18:37.781Z,46.00
2018-08-06T06:21:06.154Z,45.80
2018-08-06T06:23:34.493Z,45.90
2018-08-06T06:26:02.841Z,45.90
2018-08-06T06:28:31.225Z,45.90
2018-08-06T06:30:59.505Z,45.80
2018-08-06T06:33:28.050Z,45.80
2018-08-06T06:35:56.454Z,45.70
2018-08-06T06:38:24.781Z,45.80
2018-08-06T06:40:53.116Z,45.70
2018-08-06T06:43:21.453Z,45.80
2018-08-06T06:45:49.766Z,45.70
2018-08-06T06:48:18.105Z,45.70
2018-08-06T06:50:46.514Z,45.90
2018-08-06T06:53:14.899Z,45.90
2018-08-06T06:55:43.272Z,45.80
2018-08-06T06:58:11.613Z,45.70
2018-08-06T07:00:39.941Z,45.80
2018-08-06T07:03:08.434Z,45.80
2018-08-06T07:05:36.747Z,45.80
2018-08-06T07:08:05.108Z,45.90
2018-08-06T07:10:33.572Z,45.90
2018-08-06T07:13:01.932Z,45.90
2018-08-06T07:15:30.264Z,46.00
2018-08-06T07:17:58.611Z,46.00
2018-08-06T07:20:27.023Z,46.00
2018-08-06T07:22:55.349Z,46.00
2018-08-06T07:27:51.813Z,45.90
2018-08-06T07:30:20.146Z,46.10
2018-08-06T07:32:48.529Z,46.10
2018-08-06T07:35:17.012Z,46.10
2018-08-06T07:37:45.399Z,46.20
2018-08-06T07:40:14.794Z,46.10
2018-08-06T07:42:43.252Z,46.10
2018-08-06T07:45:17.160Z,46.20
2018-08-06T07:47:46.024Z,46.20
2018-08-06T07:50:16.455Z,46.80
2018-08-06T07:52:44.865Z,46.20
2018-08-06T07:55:13.216Z,46.20
2018-08-06T07:57:41.669Z,46.30
2018-08-06T08:00:18.614Z,46.30
2018-08-06T08:02:46.952Z,46.20
2018-08-06T08:05:16.578Z,46.20
2018-08-06T08:07:46.319Z,46.30
2018-08-06T08:10:18.062Z,46.20
2018-08-06T08:12:46.955Z,46.20
2018-08-06T08:15:18.712Z,45.60
2018-08-06T08:17:50.295Z,46.60
2018-08-06T08:20:18.988Z,46.30
2018-08-06T08:22:47.393Z,46.20
2018-08-06T08:25:17.619Z,46.00
2018-08-06T08:27:46.104Z,46.60
2018-08-06T08:30:15.541Z,45.90
2018-08-06T08:32:43.886Z,45.90
2018-08-06T08:35:14.251Z,45.80
2018-08-06T08:37:42.863Z,45.80
2018-08-06T08:42:40.933Z,46.00
2018-08-06T08:45:12.080Z,45.90
2018-08-06T08:47:41.311Z,45.80
2018-08-06T08:50:11.912Z,45.60
2018-08-06T08:52:41.104Z,45.50
2018-08-06T08:55:10.954Z,45.70
2018-08-06T08:57:39.507Z,46.00
2018-08-06T09:00:13.848Z,46.10
2018-08-06T09:02:43.336Z,46.00
2018-08-06T09:05:11.744Z,46.00
2018-08-06T09:07:40.094Z,45.80
2018-08-06T09:10:10.180Z,45.80
2018-08-06T09:12:39.043Z,46.10
2018-08-06T09:15:11.016Z,46.40
2018-08-06T09:17:39.365Z,45.80
2018-08-06T09:20:07.876Z,45.70
2018-08-06T09:22:36.556Z,45.40
2018-08-06T09:25:05.797Z,45.50
2018-08-06T09:27:41.794Z,45.30
2018-08-06T09:30:14.814Z,45.50
2018-08-06T09:32:44.824Z,45.50
2018-08-06T09:35:13.897Z,45.50
2018-08-06T09:37:42.382Z,45.40
2018-08-06T09:40:13.069Z,45.10
2018-08-06T09:42:42.110Z,44.90
2018-08-06T09:45:13.580Z,45.10
2018-08-06T09:47:43.185Z,45.10
2018-08-06T09:50:12.385Z,45.20
2018-08-06T09:52:41.479Z,44.50
2018-08-06T09:55:12.728Z,44.50
2018-08-06T09:57:41.720Z,44.60
2018-08-06T10:00:22.260Z,44.60
2018-08-06T10:02:51.824Z,44.80
2018-08-06T10:05:21.628Z,44.80
2018-08-06T10:07:49.969Z,44.80
2018-08-06T10:10:18.332Z,44.30
2018-08-06T10:12:47.087Z,44.40
2018-08-06T10:15:15.953Z,44.40
2018-08-06T10:17:45.290Z,44.20
2018-08-06T10:20:16.842Z,44.20
2018-08-06T10:22:45.291Z,44.30
2018-08-06T10:27:44.036Z,44.30
2018-08-06T10:30:16.166Z,44.00
2018-08-06T10:32:45.113Z,44.10
2018-08-06T10:35:14.691Z,43.90
2018-08-06T10:37:43.195Z,44.00
2018-08-06T10:40:14.337Z,43.80
2018-08-06T10:42:43.641Z,44.20
2018-08-06T10:45:13.665Z,44.10
2018-08-06T10:47:42.438Z,44.30
2018-08-06T10:50:11.247Z,44.00
2018-08-06T10:52:39.672Z,44.20
2018-08-06T10:55:09.264Z,44.20
2018-08-06T10:57:38.372Z,44.20
2018-08-06T11:00:14.129Z,44.20
2018-08-06T11:02:42.580Z,44.30
2018-08-06T11:05:12.493Z,44.30
2018-08-06T11:07:40.939Z,44.20
2018-08-06T11:12:40.090Z,44.10
2018-08-06T11:15:12.850Z,44.10
2018-08-06T11:17:41.396Z,44.20
2018-08-06T11:20:11.675Z,44.00
2018-08-06T11:22:40.540Z,44.10
2018-08-06T11:25:10.497Z,44.10
2018-08-06T11:27:39.017Z,44.00
2018-08-06T11:30:12.486Z,44.60
2018-08-06T11:32:40.900Z,44.10
2018-08-06T11:35:10.088Z,44.30
2018-08-06T11:37:38.864Z,44.90
2018-08-06T11:40:08.575Z,44.70
2018-08-06T11:42:37.655Z,44.90
2018-08-06T11:45:06.592Z,44.90
2018-08-06T11:47:35.016Z,45.00
2018-08-06T11:50:03.691Z,45.00
2018-08-06T11:52:32.104Z,45.20
2018-08-06T11:57:28.975Z,45.70
2018-08-06T12:02:26.115Z,45.20
2018-08-06T12:04:54.747Z,45.30
2018-08-06T12:09:51.339Z,45.00
2018-08-06T12:12:20.009Z,44.90
2018-08-06T12:14:48.452Z,44.60
2018-08-06T12:17:16.898Z,45.00
2018-08-06T12:19:45.335Z,46.80
2018-08-06T12:22:13.803Z,44.40
2018-08-06T12:24:42.267Z,44.70
2018-08-06T12:27:10.732Z,44.70
2018-08-06T12:29:39.162Z,44.80
2018-08-06T12:32:07.627Z,44.90
2018-08-06T12:34:36.073Z,44.90
2018-08-06T12:37:04.625Z,44.80
2018-08-06T12:39:33.083Z,44.70
2018-08-06T12:42:01.602Z,44.70
2018-08-06T12:44:33.240Z,44.70
2018-08-06T12:47:01.707Z,44.70
2018-08-06T12:49:30.183Z,44.80
2018-08-06T12:51:58.615Z,44.80
2018-08-06T12:54:27.021Z,44.70
2018-08-06T12:56:55.425Z,44.60
2018-08-06T12:59:23.873Z,44.70
2018-08-06T13:01:52.293Z,44.60
2018-08-06T13:04:20.746Z,44.60
2018-08-06T13:06:49.148Z,44.70
2018-08-06T13:09:17.576Z,44.70
2018-08-06T13:11:46.029Z,44.70
2018-08-06T13:14:14.470Z,44.70
2018-08-06T13:16:42.906Z,44.70
2018-08-06T13:19:11.314Z,45.10
2018-08-06T13:21:39.733Z,44.70
2018-08-06T13:26:42.931Z,44.80
2018-08-06T13:29:11.345Z,44.70
2018-08-06T13:31:39.863Z,44.80
2018-08-06T13:34:08.290Z,44.80
2018-08-06T13:36:36.734Z,44.70
2018-08-06T13:39:10.220Z,45.20
2018-08-06T13:41:38.703Z,44.90
2018-08-06T13:44:07.159Z,44.80
2018-08-06T13:46:35.721Z,44.90
2018-08-06T13:49:04.212Z,44.90
2018-08-06T13:51:32.650Z,44.80
2018-08-06T13:54:01.103Z,44.70
2018-08-06T13:56:29.704Z,44.90
2018-08-06T13:58:58.117Z,44.80
2018-08-06T14:01:26.568Z,44.90
2018-08-06T14:03:55.355Z,45.00
2018-08-06T14:06:23.848Z,45.00
2018-08-06T14:08:52.300Z,45.00
2018-08-06T14:11:20.780Z,44.90
2018-08-06T14:13:49.187Z,45.00
2018-08-06T14:16:17.617Z,44.90
2018-08-06T14:18:46.067Z,44.90
2018-08-06T14:21:14.507Z,45.00
2018-08-06T14:23:42.938Z,44.90
2018-08-06T14:26:11.355Z,44.80
2018-08-06T14:28:43.364Z,44.70
2018-08-06T14:31:11.798Z,44.60
2018-08-06T14:33:40.211Z,44.60
2018-08-06T14:36:08.615Z,45.20
2018-08-06T14:38:37.087Z,44.50
2018-08-06T14:41:05.482Z,44.50
2018-08-06T14:43:33.871Z,44.30
2018-08-06T14:46:02.331Z,44.60
2018-08-06T14:48:30.988Z,44.50
2018-08-06T14:50:59.393Z,44.50
2018-08-06T14:53:27.808Z,44.20
2018-08-06T14:55:56.258Z,44.40
2018-08-06T14:58:24.667Z,44.30
2018-08-06T15:00:53.340Z,44.20
2018-08-06T15:03:21.748Z,44.30
2018-08-06T15:05:50.229Z,44.30
2018-08-06T15:08:18.695Z,44.30
2018-08-06T15:10:47.240Z,44.30
2018-08-06T15:13:15.686Z,44.40
2018-08-06T15:15:44.187Z,44.40
2018-08-06T15:18:12.609Z,44.40
2018-08-06T15:20:41.058Z,44.40
2018-08-06T15:23:09.488Z,44.40
2018-08-06T15:25:38.066Z,44.40
2018-08-06T15:28:06.498Z,44.30
2018-08-06T15:30:34.961Z,44.30
2018-08-06T15:33:03.386Z,44.30
2018-08-06T15:35:31.843Z,44.30
2018-08-06T15:38:00.464Z,44.30
2018-08-06T15:40:28.890Z,44.30
2018-08-06T15:42:57.475Z,44.30
2018-08-06T15:45:25.919Z,44.20
2018-08-06T15:47:54.341Z,44.40
2018-08-06T15:50:22.883Z,44.30
2018-08-06T15:52:51.436Z,44.30
2018-08-06T15:55:19.856Z,44.30
2018-08-06T15:57:48.268Z,44.40
2018-08-06T16:00:18.049Z,44.40
2018-08-06T16:02:46.919Z,45.10
2018-08-06T16:05:15.731Z,44.50
2018-08-06T16:07:44.291Z,44.50
2018-08-06T16:10:13.405Z,44.60
2018-08-06T16:12:42.378Z,44.60
2018-08-06T16:15:12.309Z,44.60
2018-08-06T16:17:41.726Z,44.60
2018-08-06T16:20:12.491Z,44.60
2018-08-06T16:22:42.136Z,44.60
2018-08-06T16:25:11.459Z,44.50
2018-08-06T16:27:39.921Z,44.50
2018-08-06T16:30:13.662Z,44.50
2018-08-06T16:32:42.328Z,44.50
2018-08-06T16:35:11.742Z,44.40
2018-08-06T16:37:40.194Z,44.30
2018-08-06T16:40:09.603Z,44.30
2018-08-06T16:42:38.011Z,44.30
2018-08-06T16:45:07.229Z,44.60
2018-08-06T16:47:36.221Z,44.30
2018-08-06T16:50:05.452Z,44.40
2018-08-06T16:52:34.094Z,44.40
2018-08-06T16:55:02.515Z,44.40
2018-08-06T16:57:30.923Z,44.30
2018-08-06T16:59:59.323Z,44.30
2018-08-06T17:02:28.023Z,44.20
2018-08-06T17:04:56.471Z,44.40
2018-08-06T17:07:24.912Z,44.30
2018-08-06T17:09:53.363Z,44.40
2018-08-06T17:12:21.773Z,44.30
2018-08-06T17:14:50.219Z,44.40
2018-08-06T17:17:18.623Z,44.40
2018-08-06T17:19:47.035Z,44.40
2018-08-06T17:22:15.500Z,44.50
2018-08-06T17:24:43.945Z,44.30
2018-08-06T17:27:12.373Z,44.30
2018-08-06T17:29:40.840Z,44.90
2018-08-06T17:32:09.425Z,44.20
2018-08-06T17:34:37.957Z,44.30
2018-08-06T17:37:06.405Z,44.30
2018-08-06T17:39:34.787Z,45.10
2018-08-06T17:42:03.200Z,44.60
2018-08-06T17:44:31.630Z,44.70
2018-08-06T17:49:28.190Z,44.90
2018-08-06T17:51:56.640Z,45.20
2018-08-06T17:54:25.132Z,45.30
2018-08-06T17:56:53.556Z,45.20
2018-08-06T17:59:21.991Z,46.10
2018-08-06T18:01:50.409Z,45.50
2018-08-06T18:04:18.849Z,45.70
2018-08-06T18:06:47.887Z,45.70
2018-08-06T18:09:16.345Z,45.70
2018-08-06T18:14:12.903Z,45.90
2018-08-06T18:16:41.356Z,46.50
2018-08-06T18:19:09.783Z,46.20
2018-08-06T18:21:38.249Z,45.90
2018-08-06T18:24:06.647Z,46.00
2018-08-06T18:26:35.091Z,46.20
2018-08-06T18:29:03.556Z,46.00
2018-08-06T18:31:32.039Z,46.00
2018-08-06T18:34:00.431Z,46.00
2018-08-06T18:36:28.953Z,46.10
2018-08-06T18:41:25.477Z,46.20
2018-08-06T18:43:53.944Z,46.30
2018-08-06T18:46:22.494Z,46.40
2018-08-06T18:48:50.912Z,46.40
2018-08-06T18:51:19.378Z,46.40
2018-08-06T18:53:47.783Z,46.50
2018-08-06T18:56:19.548Z,46.70
2018-08-06T18:58:47.993Z,46.80
2018-08-06T19:01:16.451Z,47.00
2018-08-06T19:06:13.081Z,47.10
2018-08-06T19:08:41.531Z,47.30
2018-08-06T19:11:10.071Z,47.30
2018-08-06T19:13:43.851Z,47.40
2018-08-06T19:16:12.289Z,47.40
2018-08-06T19:18:45.991Z,47.40
2018-08-06T19:21:14.430Z,47.60
2018-08-06T19:23:42.886Z,47.80
2018-08-06T19:26:11.431Z,47.80
2018-08-06T19:28:39.883Z,47.80
2018-08-06T19:31:13.895Z,48.50
2018-08-06T19:33:42.549Z,47.80
2018-08-06T19:36:11.010Z,47.80
2018-08-06T19:38:39.489Z,47.90
2018-08-06T19:41:07.907Z,47.90
2018-08-06T19:43:37.328Z,47.90
2018-08-06T19:46:06.323Z,47.90
2018-08-06T19:48:34.719Z,47.90
2018-08-06T19:51:03.195Z,47.90
2018-08-06T19:53:31.676Z,47.90
2018-08-06T19:56:05.482Z,47.90
2018-08-06T19:58:40.365Z,48.00
2018-08-06T20:01:08.788Z,48.00
2018-08-06T20:03:37.242Z,48.00
2018-08-06T20:06:11.286Z,48.00
2018-08-06T20:08:39.721Z,48.00
2018-08-06T20:11:08.183Z,48.00
2018-08-06T20:13:36.664Z,48.00
2018-08-06T20:16:05.088Z,48.00
2018-08-06T20:18:33.536Z,47.90
2018-08-06T20:21:01.956Z,47.90
2018-08-06T20:23:30.397Z,47.90
2018-08-06T20:25:58.823Z,48.00
2018-08-06T20:28:27.287Z,48.00
2018-08-06T20:30:55.711Z,48.20
2018-08-06T20:33:24.120Z,48.10
2018-08-06T20:35:52.552Z,47.90
2018-08-06T20:38:20.977Z,47.80
2018-08-06T20:40:49.431Z,48.50
2018-08-06T20:43:17.892Z,47.70
2018-08-06T20:45:46.327Z,47.70
2018-08-06T20:48:14.739Z,47.60
2018-08-06T20:50:43.098Z,47.60
2018-08-06T20:53:11.492Z,47.70
2018-08-06T20:55:39.812Z,47.60
2018-08-06T20:58:08.184Z,47.50
2018-08-06T21:00:36.617Z,47.40
2018-08-06T21:03:05.251Z,47.30
2018-08-06T21:05:33.642Z,47.30
2018-08-06T21:08:02.024Z,47.20
2018-08-06T21:10:30.471Z,47.20
2018-08-06T21:12:58.888Z,47.20
2018-08-06T21:15:27.297Z,47.20
2018-08-06T21:17:55.789Z,47.30
2018-08-06T21:20:24.189Z,47.20
2018-08-06T21:22:52.589Z,47.20
2018-08-06T21:25:21.004Z,47.20
2018-08-06T21:27:49.619Z,47.30
2018-08-06T21:30:20.767Z,47.20
2018-08-06T21:32:52.220Z,47.20
2018-08-06T21:35:21.702Z,47.20
2018-08-06T21:37:51.266Z,47.30
2018-08-06T21:40:20.550Z,47.20
2018-08-06T21:45:17.583Z,47.30
2018-08-06T21:47:46.107Z,47.30
2018-08-06T21:50:15.001Z,47.30
2018-08-06T21:52:43.487Z,47.30
2018-08-06T21:55:12.211Z,47.30
2018-08-06T21:57:40.578Z,47.30
2018-08-06T22:00:43.281Z,47.30
2018-08-06T22:03:16.862Z,47.30
2018-08-06T22:05:45.759Z,47.30
2018-08-06T22:08:14.185Z,47.20
2018-08-06T22:10:42.703Z,47.20
2018-08-06T22:13:11.428Z,47.40
2018-08-06T22:15:39.882Z,47.30
2018-08-06T22:18:09.753Z,47.30
2018-08-06T22:20:38.156Z,47.30
2018-08-06T22:23:06.601Z,47.30
2018-08-06T22:25:35.047Z,47.40
2018-08-06T22:28:04.438Z,47.40
2018-08-06T22:30:32.797Z,47.40
2018-08-06T22:33:01.181Z,47.40
2018-08-06T22:35:29.655Z,47.40
2018-08-06T22:37:58.082Z,47.40
2018-08-06T22:40:26.489Z,47.40
2018-08-06T22:42:54.867Z,47.50
2018-08-06T22:45:23.279Z,47.60
2018-08-06T22:47:51.657Z,47.50
2018-08-06T22:50:20.146Z,47.50
2018-08-06T22:52:48.563Z,47.60
2018-08-06T22:55:16.920Z,47.50
2018-08-06T22:57:45.310Z,47.60
2018-08-06T23:00:15.638Z,47.60
2018-08-06T23:02:44.387Z,47.60
2018-08-06T23:05:14.513Z,47.60
2018-08-06T23:07:43.213Z,47.60
2018-08-06T23:10:14.094Z,47.50
2018-08-06T23:12:42.521Z,47.50
2018-08-06T23:15:12.905Z,47.40
2018-08-06T23:17:41.654Z,47.50
2018-08-06T23:20:10.352Z,47.50
2018-08-06T23:22:39.109Z,47.50
2018-08-06T23:25:08.001Z,47.50
2018-08-06T23:27:37.325Z,47.50
2018-08-06T23:30:09.397Z,47.50
2018-08-06T23:32:37.757Z,47.50
2018-08-06T23:35:07.833Z,47.50
2018-08-06T23:37:36.199Z,47.50
2018-08-06T23:40:05.285Z,47.50
2018-08-06T23:45:01.833Z,47.50
2018-08-06T23:47:30.263Z,47.60
2018-08-06T23:49:58.659Z,47.50
2018-08-06T23:52:27.051Z,47.50
2018-08-06T23:54:55.402Z,47.50
2018-08-06T23:57:23.809Z,47.50
2018-08-06T23:59:52.155Z,47.50
